Time;durP1;ratioP1;P1;durP2;ratioP2;P2;SDS_P1;SDS_P2;PMS_P1;PMS_P2;Temp;Humidity;BMP_temperature;BMP_pressure;BME280_temperature;BME280_humidity;BME280_pressure;Samples;Min_cycle;Max_cycle;Signal;HPM_P1;HPM_P2
2023/01/09 00:00:32;;;;;;;12.43;9.43;;;9.60;91.50;;;;;;10981954;32;20023;-73
2023/01/09 00:06:39;;;;;;;14.98;9.45;;;9.60;91.50;;;;;;10981866;32;20052;-73
2023/01/09 00:12:41;;;;;;;11.40;7.72;;;9.70;91.60;;;;;;10968000;32;20050;-73
2023/01/09 00:18:43;;;;;;;11.30;7.68;;;9.70;91.50;;;;;;10981205;32;20023;-73
2023/01/09 00:24:45;;;;;;;12.15;9.32;;;9.70;91.50;;;;;;11013694;27;20057;-72
2023/01/09 00:30:58;;;;;;;13.75;10.02;;;9.70;91.50;;;;;;11018103;32;20045;-73
2023/01/09 00:37:00;;;;;;;12.35;9.10;;;9.70;91.50;;;;;;11014616;32;20026;-73
2023/01/09 00:43:02;;;;;;;11.35;8.50;;;9.70;91.60;;;;;;11018696;32;20345;-73
2023/01/09 00:49:06;;;;;;;12.50;9.73;;;9.70;91.60;;;;;;11017547;32;20327;-72
2023/01/09 00:55:09;;;;;;;16.12;10.18;;;9.70;91.60;;;;;;11014110;32;20324;-72
2023/01/09 01:01:11;;;;;;;13.00;8.00;;;9.80;91.60;;;;;;11018140;32;20037;-72
2023/01/09 01:13:34;;;;;;;10.85;6.47;;;9.90;91.70;;;;;;11017875;32;20026;-72
2023/01/09 01:19:36;;;;;;;12.95;8.40;;;9.90;91.70;;;;;;11017678;32;20010;-72
2023/01/09 01:25:40;;;;;;;9.63;5.28;;;10.00;91.80;;;;;;10867652;32;20353;-72
2023/01/09 01:31:43;;;;;;;7.78;5.25;;;10.10;91.90;;;;;;10861425;32;20074;-72
2023/01/09 01:37:45;;;;;;;10.23;7.28;;;10.20;91.80;;;;;;10867068;32;20341;-71
2023/01/09 01:43:53;;;;;;;9.68;5.50;;;10.20;91.80;;;;;;10863752;32;20011;-71
2023/01/09 01:49:56;;;;;;;8.43;4.50;;;10.30;91.80;;;;;;10864863;32;20369;-71
2023/01/09 01:56:04;;;;;;;14.00;6.37;;;10.40;91.80;;;;;;10867279;32;20015;-72
2023/01/09 02:02:08;;;;;;;12.90;7.57;;;10.50;91.60;;;;;;10865902;32;20023;-72
2023/01/09 02:08:11;;;;;;;7.93;5.25;;;10.60;91.60;;;;;;10867067;32;20296;-72
2023/01/09 02:14:15;;;;;;;7.32;3.85;;;10.60;91.80;;;;;;10864167;32;20424;-72
2023/01/09 02:20:32;;;;;;;5.72;2.80;;;10.70;91.70;;;;;;10928523;32;20022;-72
2023/01/09 02:27:01;;;;;;;7.28;4.03;;;10.90;91.70;;;;;;11023586;32;20412;-73
2023/01/09 02:33:12;;;;;;;3.75;2.85;;;11.00;91.50;;;;;;11023264;32;20126;-73
2023/01/09 02:39:26;;;;;;;6.05;3.53;;;11.20;91.50;;;;;;11023146;32;20053;-73
2023/01/09 02:45:28;;;;;;;4.40;3.12;;;11.30;91.20;;;;;;11022488;32;20014;-73
2023/01/09 02:52:23;;;;;;;8.30;5.07;;;11.40;91.40;;;;;;11021519;32;20031;-73
2023/01/09 02:58:50;;;;;;;5.03;2.80;;;11.60;91.30;;;;;;10868482;32;20046;-73
2023/01/09 03:05:04;;;;;;;7.60;4.43;;;11.70;91.20;;;;;;10867282;32;20055;-73
2023/01/09 03:11:08;;;;;;;6.75;3.47;;;11.80;91.20;;;;;;10867359;32;20050;-73
2023/01/09 03:17:15;;;;;;;5.45;2.95;;;12.00;90.80;;;;;;10866913;32;20035;-73
2023/01/09 03:23:17;;;;;;;4.95;2.53;;;12.00;90.50;;;;;;10866475;32;20513;-73
2023/01/09 03:29:19;;;;;;;4.68;2.78;;;11.90;90.70;;;;;;10866432;32;20020;-72
2023/01/09 03:35:22;;;;;;;4.40;3.05;;;11.90;90.80;;;;;;11014149;32;20018;-72
2023/01/09 03:41:24;;;;;;;6.00;3.55;;;11.70;90.90;;;;;;11020943;32;20053;-72
2023/01/09 03:47:26;;;;;;;8.65;4.22;;;11.50;91.60;;;;;;11019796;32;20056;-72
2023/01/09 03:53:28;;;;;;;4.20;2.35;;;11.30;92.00;;;;;;11020342;32;20352;-72
2023/01/09 03:59:30;;;;;;;10.25;3.40;;;11.60;92.30;;;;;;11017141;32;20009;-72
2023/01/09 04:05:32;;;;;;;10.25;3.55;;;11.80;91.50;;;;;;11020020;32;20042;-72
2023/01/09 04:11:34;;;;;;;6.45;4.62;;;11.80;91.70;;;;;;11019733;32;20389;-72
2023/01/09 04:17:37;;;;;;;8.02;3.78;;;12.00;91.30;;;;;;11019524;32;20427;-72
2023/01/09 04:23:39;;;;;;;4.22;2.80;;;11.90;91.20;;;;;;10921322;32;20041;-72
2023/01/09 04:29:40;;;;;;;3.10;2.20;;;11.90;91.20;;;;;;10862861;32;20039;-71
2023/01/09 04:35:42;;;;;;;2.97;1.95;;;11.90;91.30;;;;;;10862876;32;20020;-72
2023/01/09 04:41:50;;;;;;;1.83;1.58;;;12.10;91.10;;;;;;10862678;32;20023;-72
2023/01/09 04:47:52;;;;;;;3.65;1.95;;;12.20;91.00;;;;;;10862566;32;20042;-72
2023/01/09 04:53:54;;;;;;;2.92;2.17;;;12.30;90.70;;;;;;10862114;32;20074;-72
2023/01/09 04:59:56;;;;;;;3.28;2.28;;;12.20;90.60;;;;;;10862074;32;20430;-72
2023/01/09 05:05:58;;;;;;;2.67;2.22;;;12.20;91.10;;;;;;10861981;32;20050;-72
2023/01/09 05:12:00;;;;;;;2.08;1.58;;;12.20;90.70;;;;;;10861743;32;20015;-72
2023/01/09 05:18:02;;;;;;;3.30;1.77;;;12.10;91.30;;;;;;10860231;32;20028;-72
2023/01/09 05:24:04;;;;;;;2.92;1.80;;;12.10;91.30;;;;;;10861577;32;20432;-72
2023/01/09 05:30:07;;;;;;;2.33;1.87;;;12.20;91.10;;;;;;10861549;32;20039;-72
2023/01/09 05:36:09;;;;;;;3.72;1.98;;;12.20;91.00;;;;;;10857318;32;20020;-72
2023/01/09 05:42:11;;;;;;;2.28;1.62;;;12.30;91.10;;;;;;10861238;32;20012;-72
2023/01/09 05:48:13;;;;;;;5.50;2.47;;;12.50;90.90;;;;;;10861079;32;20012;-74
2023/01/09 05:54:15;;;;;;;3.25;2.12;;;12.50;90.70;;;;;;10860858;32;20023;-75
2023/01/09 06:00:18;;;;;;;2.80;1.92;;;12.50;90.60;;;;;;10860787;32;20015;-75
2023/01/09 06:06:20;;;;;;;3.53;1.98;;;12.50;90.70;;;;;;10860560;32;20020;-75
2023/01/09 06:12:22;;;;;;;2.17;1.52;;;12.50;90.60;;;;;;10911481;32;20427;-75
2023/01/09 06:18:24;;;;;;;1.90;1.27;;;12.60;90.80;;;;;;10860135;32;20059;-75
2023/01/09 06:24:27;;;;;;;3.12;1.98;;;12.60;90.60;;;;;;10866647;32;20408;-75
2023/01/09 06:30:29;;;;;;;2.03;1.83;;;12.70;90.70;;;;;;10918004;32;20020;-75
2023/01/09 06:36:31;;;;;;;3.28;1.40;;;12.80;90.30;;;;;;10917214;32;20039;-75
2023/01/09 06:42:33;;;;;;;2.10;1.67;;;12.70;90.40;;;;;;10917506;32;20036;-75
2023/01/09 06:48:35;;;;;;;3.00;2.05;;;12.80;90.50;;;;;;10865237;32;20015;-75
2023/01/09 06:54:37;;;;;;;3.47;1.67;;;12.90;90.30;;;;;;10865921;32;20050;-73
2023/01/09 07:00:39;;;;;;;3.15;2.00;;;13.00;90.10;;;;;;10905548;32;20394;-72
2023/01/09 07:06:41;;;;;;;3.60;1.92;;;13.00;90.10;;;;;;10830780;32;20032;-72
2023/01/09 07:12:43;;;;;;;2.83;1.67;;;13.00;90.20;;;;;;10832129;32;20054;-73
2023/01/09 07:18:45;;;;;;;1.80;1.33;;;13.10;89.90;;;;;;10827071;33;20024;-72
2023/01/09 07:24:47;;;;;;;4.57;2.72;;;12.80;89.80;;;;;;10826473;33;20019;-73
2023/01/09 07:30:49;;;;;;;2.97;1.62;;;12.80;90.40;;;;;;10829298;32;20024;-73
2023/01/09 07:36:52;;;;;;;2.83;1.85;;;12.70;90.20;;;;;;10827557;33;20038;-73
2023/01/09 07:42:53;;;;;;;3.87;2.08;;;12.70;90.60;;;;;;10827355;33;20020;-73
2023/01/09 07:48:55;;;;;;;4.10;2.40;;;12.90;90.40;;;;;;10827286;33;20424;-73
2023/01/09 07:54:58;;;;;;;2.22;1.40;;;12.70;89.90;;;;;;10826826;33;20398;-73
2023/01/09 08:01:00;;;;;;;4.32;2.67;;;12.10;90.50;;;;;;10873010;32;20035;-73
2023/01/09 08:07:02;;;;;;;2.95;2.20;;;12.00;91.60;;;;;;10826575;33;20394;-73
2023/01/09 08:13:11;;;;;;;3.85;2.33;;;12.20;91.10;;;;;;10826355;33;20365;-73
2023/01/09 08:19:13;;;;;;;2.47;2.17;;;12.00;90.90;;;;;;10826266;33;20038;-72
2023/01/09 08:25:16;;;;;;;5.82;3.45;;;11.90;91.40;;;;;;10090458;33;22103980;-72
2023/01/09 08:31:18;;;;;;;4.37;2.95;;;11.80;91.50;;;;;;10736856;33;20020;-73
2023/01/09 08:37:20;;;;;;;5.45;3.53;;;12.00;92.00;;;;;;10748357;33;20343;-73
2023/01/09 08:50:03;;;;;;;4.78;3.45;;;13.20;90.80;;;;;;10751470;33;20063;-73
2023/01/09 08:56:05;;;;;;;3.12;2.42;;;13.20;90.30;;;;;;10751936;33;20032;-73
2023/01/09 09:02:08;;;;;;;4.95;2.90;;;12.90;89.90;;;;;;10751868;33;20029;-73
2023/01/09 09:08:11;;;;;;;3.92;2.40;;;12.70;91.00;;;;;;10751851;33;20017;-73
2023/01/09 09:20:38;;;;;;;3.22;2.17;;;12.70;91.00;;;;;;10751602;33;20438;-73
2023/01/09 09:26:40;;;;;;;5.65;3.47;;;12.60;91.00;;;;;;10738672;33;20051;-73
2023/01/09 09:32:42;;;;;;;4.40;2.80;;;12.30;91.00;;;;;;10734585;33;20395;-73
2023/01/09 09:38:44;;;;;;;6.95;5.22;;;12.20;91.70;;;;;;10725739;33;20071;-73
2023/01/09 09:45:20;;;;;;;7.97;3.85;;;12.50;91.60;;;;;;10751303;33;20047;-73
2023/01/09 09:51:25;;;;;;;8.45;5.15;;;12.40;91.00;;;;;;10751012;33;20021;-73
2023/01/09 09:57:34;;;;;;;7.75;5.00;;;12.20;91.30;;;;;;10755121;33;20043;-73
2023/01/09 10:03:47;;;;;;;7.25;4.62;;;12.20;91.40;;;;;;10757206;33;20021;-73
2023/01/09 10:09:58;;;;;;;8.90;5.97;;;12.00;91.60;;;;;;10757011;33;20093;-73
2023/01/09 10:16:35;;;;;;;10.35;7.18;;;11.80;91.50;;;;;;10756537;33;20327;-73
2023/01/09 10:23:11;;;;;;;8.18;4.43;;;11.80;91.80;;;;;;10753804;33;20025;-73
2023/01/09 10:29:27;;;;;;;7.57;5.65;;;11.70;91.70;;;;;;10756331;33;20020;-73
2023/01/09 10:35:32;;;;;;;7.75;5.82;;;11.70;91.70;;;;;;10756215;33;20032;-73
2023/01/09 10:41:40;;;;;;;7.00;4.53;;;11.70;92.00;;;;;;10756087;33;20414;-73
2023/01/09 10:47:43;;;;;;;7.37;4.90;;;12.10;92.00;;;;;;10742704;33;20028;-73
2023/01/09 10:53:50;;;;;;;6.78;4.60;;;12.40;91.80;;;;;;10755702;33;20044;-73
2023/01/09 10:59:52;;;;;;;5.90;3.00;;;12.70;91.20;;;;;;10751552;33;20047;-73
2023/01/09 11:05:57;;;;;;;4.72;3.12;;;12.80;90.90;;;;;;10755073;33;20071;-73
2023/01/09 11:11:59;;;;;;;4.57;2.95;;;12.80;90.70;;;;;;10755364;33;20020;-73
2023/01/09 11:18:21;;;;;;;4.87;3.03;;;12.60;90.90;;;;;;10754793;33;20020;-73
2023/01/09 11:24:28;;;;;;;7.00;4.50;;;12.50;91.10;;;;;;10754538;33;20043;-76
2023/01/09 11:30:35;;;;;;;6.03;3.97;;;12.50;91.20;;;;;;10728782;33;20036;-76
2023/01/09 11:36:37;;;;;;;6.87;4.53;;;12.40;90.80;;;;;;10740089;33;20029;-77
2023/01/09 11:42:51;;;;;;;5.57;3.83;;;12.30;91.00;;;;;;10753439;32;20077;-76
2023/01/09 11:48:56;;;;;;;6.22;4.68;;;12.20;91.10;;;;;;10752242;33;20021;-76
2023/01/09 11:55:03;;;;;;;7.22;4.18;;;12.20;91.60;;;;;;10728156;33;20387;-76
2023/01/09 12:01:26;;;;;;;7.53;5.32;;;12.40;91.20;;;;;;10793064;32;20082;-76
2023/01/09 12:07:42;;;;;;;10.25;6.90;;;12.50;91.10;;;;;;10753115;33;20035;-76
2023/01/09 12:14:21;;;;;;;9.68;4.55;;;12.30;90.80;;;;;;10736047;33;20390;-76
2023/01/09 12:20:34;;;;;;;7.10;4.60;;;12.20;91.20;;;;;;10738524;33;20052;-76
2023/01/09 12:27:12;;;;;;;8.48;4.15;;;12.20;91.10;;;;;;10739873;33;20382;-76
2023/01/09 12:33:53;;;;;;;9.77;7.15;;;12.10;91.20;;;;;;10751337;33;20016;-76
2023/01/09 12:40:05;;;;;;;11.73;7.93;;;11.90;91.10;;;;;;10641165;32;20030;-76
2023/01/09 12:46:13;;;;;;;7.80;5.40;;;11.80;91.00;;;;;;10640032;33;20367;-75
2023/01/09 12:52:22;;;;;;;16.20;9.85;;;11.80;91.10;;;;;;10635958;33;20061;-76
2023/01/09 12:58:35;;;;;;;8.77;5.85;;;11.70;91.00;;;;;;10639524;33;20017;-76
2023/01/09 13:04:48;;;;;;;11.73;8.10;;;11.50;90.70;;;;;;10640640;33;20049;-77
2023/01/09 13:11:08;;;;;;;10.52;7.35;;;11.40;90.70;;;;;;10637131;33;20052;-76
2023/01/09 13:17:21;;;;;;;10.02;6.87;;;11.30;90.80;;;;;;10733166;33;20422;-77
2023/01/09 13:23:31;;;;;;;26.00;15.45;;;11.40;91.00;;;;;;10751340;33;20024;-77
2023/01/09 13:29:47;;;;;;;14.80;8.93;;;11.40;91.00;;;;;;10743472;32;20033;-77
2023/01/09 13:35:54;;;;;;;14.38;9.30;;;11.30;90.50;;;;;;10761125;33;20055;-77
2023/01/09 13:48:37;;;;;;;10.63;8.27;;;11.20;90.00;;;;;;10726662;33;20024;-77
2023/01/09 13:54:55;;;;;;;11.65;7.05;;;11.10;90.10;;;;;;10725496;33;20017;-77
2023/01/09 14:01:00;;;;;;;10.50;7.53;;;11.00;90.10;;;;;;10713231;33;20437;-77
2023/01/09 14:07:44;;;;;;;12.48;8.73;;;11.00;90.10;;;;;;10748334;32;20044;-77
2023/01/09 14:14:01;;;;;;;12.25;8.15;;;10.90;90.00;;;;;;10825478;32;20031;-76
2023/01/09 14:20:22;;;;;;;11.07;7.12;;;11.00;90.00;;;;;;10837491;32;20525;-76
2023/01/09 14:26:44;;;;;;;10.70;6.90;;;11.10;90.20;;;;;;10837516;32;20042;-76
2023/01/09 14:32:59;;;;;;;8.55;4.90;;;11.10;90.30;;;;;;10836850;32;20020;-76
2023/01/09 14:39:04;;;;;;;15.50;9.68;;;11.20;90.30;;;;;;10836687;32;20066;-76
2023/01/09 14:45:15;;;;;;;13.62;9.82;;;11.20;90.20;;;;;;10798287;32;20033;-76
2023/01/09 14:51:19;;;;;;;9.93;6.40;;;11.20;90.30;;;;;;10742802;33;20029;-76
2023/01/09 14:57:24;;;;;;;12.07;7.50;;;11.10;90.40;;;;;;10811853;32;20035;-75
2023/01/09 15:03:50;;;;;;;10.30;7.05;;;11.50;90.60;;;;;;10909953;32;20026;-75
2023/01/09 15:09:52;;;;;;;9.50;6.05;;;11.70;90.30;;;;;;10946257;32;20420;-75
2023/01/09 15:15:55;;;;;;;8.70;4.78;;;11.50;90.00;;;;;;10945988;32;20015;-74
2023/01/09 15:22:03;;;;;;;5.50;3.17;;;11.90;90.70;;;;;;10932165;32;20023;-75
2023/01/09 15:28:33;;;;;;;6.25;3.53;;;12.20;90.20;;;;;;10931795;32;20076;-74
2023/01/09 15:34:35;;;;;;;6.95;4.57;;;12.30;89.90;;;;;;10945427;32;20077;-75
2023/01/09 15:40:37;;;;;;;7.53;5.62;;;12.20;89.80;;;;;;10945324;32;20011;-75
2023/01/09 15:46:40;;;;;;;5.62;3.37;;;12.20;90.00;;;;;;10945208;32;20392;-75
2023/01/09 15:52:43;;;;;;;6.12;3.12;;;12.00;89.80;;;;;;10943966;32;20350;-75
2023/01/09 15:58:49;;;;;;;2.37;1.55;;;12.00;89.70;;;;;;10931171;32;20055;-75
2023/01/09 16:04:53;;;;;;;2.25;1.25;;;11.90;90.10;;;;;;10810054;32;20449;-75
2023/01/09 16:11:00;;;;;;;5.30;2.67;;;11.80;89.90;;;;;;10753448;33;20044;-75
2023/01/09 16:17:06;;;;;;;1.55;1.12;;;11.60;89.50;;;;;;10753049;33;20020;-75
2023/01/09 16:23:27;;;;;;;2.50;1.60;;;11.20;89.40;;;;;;10858178;27;20031;-76
2023/01/09 16:29:34;;;;;;;2.05;1.20;;;11.20;89.80;;;;;;10943726;32;20058;-76
2023/01/09 16:35:36;;;;;;;2.37;1.42;;;11.30;89.70;;;;;;10943289;32;20015;-76
2023/01/09 16:48:10;;;;;;;1.80;1.17;;;11.60;89.70;;;;;;10942317;32;20491;-76
2023/01/09 16:54:13;;;;;;;3.37;1.73;;;11.70;89.60;;;;;;10942787;32;20023;-76
2023/01/09 17:00:19;;;;;;;3.33;2.00;;;11.40;89.30;;;;;;10942162;32;20055;-77
2023/01/09 17:06:30;;;;;;;5.00;2.40;;;11.20;89.90;;;;;;10942102;32;20337;-75
2023/01/09 17:12:33;;;;;;;3.55;2.20;;;11.30;90.00;;;;;;10941974;32;20045;-75
2023/01/09 17:18:35;;;;;;;4.57;2.67;;;11.20;89.50;;;;;;10940902;32;20047;-76
2023/01/09 17:30:59;;;;;;;2.92;1.23;;;10.90;88.70;;;;;;10787518;33;20020;-76
2023/01/09 17:37:01;;;;;;;2.55;1.55;;;11.10;89.10;;;;;;10837691;32;20061;-76
2023/01/09 17:43:03;;;;;;;1.73;1.08;;;11.20;89.10;;;;;;10787453;33;20063;-76
2023/01/09 17:49:09;;;;;;;2.28;1.50;;;11.30;89.10;;;;;;10837864;32;20066;-76
2023/01/09 17:55:11;;;;;;;3.72;1.80;;;11.30;88.60;;;;;;10787142;33;20438;-76
2023/01/09 18:01:16;;;;;;;3.78;2.62;;;11.40;89.00;;;;;;10786968;33;20403;-76
2023/01/09 18:07:19;;;;;;;3.65;2.60;;;11.60;88.90;;;;;;10786894;33;20055;-77
2023/01/09 18:13:21;;;;;;;4.35;2.92;;;11.50;88.90;;;;;;10786841;33;20021;-77
2023/01/09 18:19:24;;;;;;;6.60;2.80;;;11.50;89.20;;;;;;10842551;32;20051;-77
2023/01/09 18:25:26;;;;;;;8.82;6.53;;;11.40;88.70;;;;;;10789243;33;20347;-76
2023/01/09 18:31:29;;;;;;;5.80;4.07;;;11.10;88.50;;;;;;10792782;33;20025;-77
2023/01/09 18:37:31;;;;;;;6.40;3.85;;;10.70;88.50;;;;;;10843204;32;20040;-76
2023/01/09 18:43:34;;;;;;;4.95;2.78;;;10.50;88.90;;;;;;10830327;32;20066;-77
2023/01/09 18:49:36;;;;;;;4.43;3.22;;;10.80;89.20;;;;;;10791857;33;20082;-77
2023/01/09 18:55:38;;;;;;;4.62;3.47;;;10.90;89.10;;;;;;10791713;33;20032;-76
2023/01/09 19:01:42;;;;;;;8.93;4.95;;;11.00;88.90;;;;;;10791609;33;20024;-76
2023/01/09 19:07:44;;;;;;;10.73;5.57;;;11.00;89.00;;;;;;10791484;33;20024;-76
2023/01/09 19:13:46;;;;;;;7.75;5.10;;;10.90;88.70;;;;;;10791312;33;20434;-76
2023/01/09 19:19:48;;;;;;;9.15;6.78;;;11.00;88.90;;;;;;10790978;33;20051;-75
2023/01/09 19:25:52;;;;;;;8.18;5.82;;;11.00;88.80;;;;;;10790476;33;20020;-75
2023/01/09 19:31:55;;;;;;;9.95;6.97;;;11.00;88.70;;;;;;10790788;33;20062;-75
2023/01/09 19:37:57;;;;;;;6.47;4.75;;;10.90;88.70;;;;;;10790498;33;20024;-75
2023/01/09 19:44:00;;;;;;;6.40;4.35;;;10.90;88.70;;;;;;10790521;33;20326;-75
2023/01/09 19:50:05;;;;;;;7.72;5.12;;;10.70;88.80;;;;;;10790277;33;20013;-75
2023/01/09 19:56:10;;;;;;;7.95;5.32;;;10.50;89.00;;;;;;10789530;33;20024;-75
2023/01/09 20:02:13;;;;;;;7.60;5.07;;;10.40;89.20;;;;;;10789851;33;20025;-76
2023/01/09 20:08:16;;;;;;;8.40;5.43;;;10.40;89.20;;;;;;10789832;33;20043;-75
2023/01/09 20:14:18;;;;;;;7.95;6.22;;;10.50;89.20;;;;;;10789297;33;20016;-75
2023/01/09 20:20:21;;;;;;;12.10;8.18;;;10.50;89.20;;;;;;10839342;32;20369;-75
2023/01/09 20:26:25;;;;;;;15.23;9.93;;;10.30;89.00;;;;;;10839136;32;20058;-72
2023/01/09 20:32:28;;;;;;;15.32;11.65;;;10.10;88.20;;;;;;10839559;32;20055;-73
2023/01/09 20:38:31;;;;;;;15.02;9.25;;;9.80;88.40;;;;;;10825971;32;20063;-73
2023/01/09 20:44:34;;;;;;;12.43;8.90;;;9.80;88.80;;;;;;10788695;33;20425;-73
2023/01/09 20:50:37;;;;;;;11.43;7.57;;;9.80;88.90;;;;;;10785694;33;20028;-72
2023/01/09 20:56:39;;;;;;;9.95;7.72;;;10.00;89.00;;;;;;10788370;33;20358;-73
2023/01/09 21:02:41;;;;;;;13.65;10.23;;;10.30;89.00;;;;;;10788110;33;20020;-73
2023/01/09 21:08:45;;;;;;;11.10;8.23;;;10.70;88.70;;;;;;10788136;33;20020;-73
2023/01/09 21:14:47;;;;;;;10.63;7.25;;;10.70;88.40;;;;;;10838438;32;20025;-73
2023/01/09 21:20:50;;;;;;;9.23;6.40;;;10.80;88.20;;;;;;10848535;32;20030;-73
2023/01/09 21:26:52;;;;;;;12.10;9.38;;;10.70;88.30;;;;;;10940391;32;20424;-73
2023/01/09 21:32:54;;;;;;;11.88;8.35;;;10.70;88.30;;;;;;10941738;32;20046;-73
2023/01/09 21:38:57;;;;;;;12.18;8.13;;;10.50;88.30;;;;;;10941618;32;20085;-73
2023/01/09 21:51:39;;;;;;;9.75;6.25;;;10.20;88.80;;;;;;10904459;32;20019;-73
2023/01/09 21:57:42;;;;;;;12.90;8.80;;;10.10;88.80;;;;;;10907721;32;20053;-73
2023/01/09 22:03:44;;;;;;;16.85;13.52;;;10.00;88.80;;;;;;10907456;32;20424;-73
2023/01/09 22:09:46;;;;;;;18.65;11.38;;;9.70;88.30;;;;;;10907022;32;20055;-73
2023/01/09 22:15:48;;;;;;;16.85;13.25;;;9.60;88.10;;;;;;10894328;32;20066;-72
2023/01/09 22:21:51;;;;;;;11.65;8.77;;;9.50;88.00;;;;;;10867502;32;20055;-73
2023/01/09 22:27:53;;;;;;;13.73;9.02;;;9.40;87.80;;;;;;10756451;33;20025;-73
2023/01/09 22:33:57;;;;;;;15.27;9.63;;;9.40;88.00;;;;;;10756233;33;20347;-73
2023/01/09 22:39:59;;;;;;;9.68;7.40;;;9.40;88.10;;;;;;10755947;33;20358;-73
2023/01/09 22:46:03;;;;;;;12.55;8.85;;;9.50;88.00;;;;;;10752891;33;20024;-73
2023/01/09 22:52:05;;;;;;;9.32;6.20;;;9.60;88.20;;;;;;10755730;33;20415;-76
2023/01/09 22:58:08;;;;;;;7.62;5.30;;;9.60;88.20;;;;;;10752403;33;20033;-76
2023/01/09 23:04:13;;;;;;;6.93;5.05;;;9.60;88.30;;;;;;10754713;33;20020;-76
2023/01/09 23:10:15;;;;;;;11.57;7.62;;;9.60;88.20;;;;;;10753410;33;20059;-77
2023/01/09 23:16:17;;;;;;;10.40;6.25;;;9.60;88.20;;;;;;10753908;33;20043;-77
2023/01/09 23:22:19;;;;;;;11.65;8.50;;;9.50;87.80;;;;;;10765356;33;20033;-77
2023/01/09 23:28:23;;;;;;;31.67;11.18;;;9.30;87.80;;;;;;10791042;33;20024;-77
2023/01/09 23:34:35;;;;;;;12.40;7.85;;;9.20;87.80;;;;;;10790814;33;20024;-77
2023/01/09 23:40:40;;;;;;;10.23;6.65;;;9.20;87.70;;;;;;10790761;33;20070;-77
2023/01/09 23:46:42;;;;;;;9.80;5.85;;;9.10;87.80;;;;;;10790466;33;20043;-77
2023/01/09 23:52:44;;;;;;;7.40;4.10;;;9.20;88.00;;;;;;10840434;32;20028;-76
2023/01/09 23:58:49;;;;;;;6.55;4.35;;;9.20;87.90;;;;;;10790176;33;20493;-77
